Weather at Athens Hellenikon International Airport [CLOSED]

Public forecast

Using degrees Celsius for public forecast. Weather courtesy of forecast.io.

Closest aviation weather report (METAR) to Athens Hellenikon International Airport

Closest report is Athens Eleftherios Venizelos International Airport, 10.5 nm (19.4 km) ENE.

2024/04/18 00:20 (retrieved 25 minutes ago)

LGAV 180020Z 29016KT 9999 FEW030 19/07 Q1001 NOSIG

Closest aviation forecast (TAF) to Athens Hellenikon International Airport

Forecast is more than 12 hours old.

Closest forecast is Ohrid St. Paul the Apostle Airport, 241.1 nm (446.4 km) NW.

2024/04/17 12:06 (retrieved 13 hours ago)

TAF LWOH 171158Z 1712/1812 26010KT 9999 FEW010 BKN040 TEMPO 1712/1805 RA SCT010 OVC040 TEMPO 1712/1715 VRB20KT 5000 TSRA SCT010 FEW025CB BKN050